sensor_id;sensor_type;location;lat;lon;timestamp;P1;durP1;ratioP1;P2;durP2;ratioP2
49193;SDS011;35029;50.804;12.866;2022-08-20T00:00:11;15.02;;;13.40;;
49193;SDS011;35029;50.804;12.866;2022-08-20T00:02:40;15.87;;;14.40;;
49193;SDS011;35029;50.804;12.866;2022-08-20T00:05:11;16.30;;;14.52;;
49193;SDS011;35029;50.804;12.866;2022-08-20T00:07:37;15.07;;;13.55;;
49193;SDS011;35029;50.804;12.866;2022-08-20T00:10:04;16.63;;;15.02;;
49193;SDS011;35029;50.804;12.866;2022-08-20T00:12:31;16.77;;;14.60;;
49193;SDS011;35029;50.804;12.866;2022-08-20T00:14:58;17.70;;;15.93;;
49193;SDS011;35029;50.804;12.866;2022-08-20T00:17:25;18.55;;;16.15;;
49193;SDS011;35029;50.804;12.866;2022-08-20T00:19:50;15.90;;;14.45;;
49193;SDS011;35029;50.804;12.866;2022-08-20T00:22:16;15.43;;;13.98;;
49193;SDS011;35029;50.804;12.866;2022-08-20T00:24:41;17.38;;;15.65;;
49193;SDS011;35029;50.804;12.866;2022-08-20T00:27:07;17.55;;;15.95;;
49193;SDS011;35029;50.804;12.866;2022-08-20T00:29:33;16.92;;;15.32;;
49193;SDS011;35029;50.804;12.866;2022-08-20T00:31:59;16.08;;;14.38;;
49193;SDS011;35029;50.804;12.866;2022-08-20T00:34:24;18.30;;;16.55;;
49193;SDS011;35029;50.804;12.866;2022-08-20T00:36:50;21.15;;;18.95;;
49193;SDS011;35029;50.804;12.866;2022-08-20T00:39:15;18.80;;;16.77;;
49193;SDS011;35029;50.804;12.866;2022-08-20T00:41:41;20.92;;;18.83;;
49193;SDS011;35029;50.804;12.866;2022-08-20T00:44:15;25.45;;;22.92;;
49193;SDS011;35029;50.804;12.866;2022-08-20T00:46:43;25.17;;;21.55;;
49193;SDS011;35029;50.804;12.866;2022-08-20T00:49:15;22.90;;;20.33;;
49193;SDS011;35029;50.804;12.866;2022-08-20T00:51:48;21.60;;;19.30;;
49193;SDS011;35029;50.804;12.866;2022-08-20T00:54:23;26.30;;;23.58;;
49193;SDS011;35029;50.804;12.866;2022-08-20T00:56:54;25.58;;;22.83;;
49193;SDS011;35029;50.804;12.866;2022-08-20T01:01:51;29.60;;;23.63;;
49193;SDS011;35029;50.804;12.866;2022-08-20T01:04:17;27.92;;;24.20;;
49193;SDS011;35029;50.804;12.866;2022-08-20T01:06:43;28.75;;;25.63;;
49193;SDS011;35029;50.804;12.866;2022-08-20T01:09:09;29.17;;;25.88;;
49193;SDS011;35029;50.804;12.866;2022-08-20T01:11:35;27.98;;;25.05;;
49193;SDS011;35029;50.804;12.866;2022-08-20T01:14:10;26.25;;;23.45;;
49193;SDS011;35029;50.804;12.866;2022-08-20T01:16:47;29.45;;;26.05;;
49193;SDS011;35029;50.804;12.866;2022-08-20T01:19:15;26.63;;;23.88;;
49193;SDS011;35029;50.804;12.866;2022-08-20T01:21:46;32.28;;;27.55;;
49193;SDS011;35029;50.804;12.866;2022-08-20T01:24:23;32.67;;;27.85;;
49193;SDS011;35029;50.804;12.866;2022-08-20T01:26:58;29.77;;;26.67;;
49193;SDS011;35029;50.804;12.866;2022-08-20T01:29:30;31.77;;;28.43;;
49193;SDS011;35029;50.804;12.866;2022-08-20T01:31:59;34.35;;;29.35;;
49193;SDS011;35029;50.804;12.866;2022-08-20T01:34:26;32.47;;;29.08;;
49193;SDS011;35029;50.804;12.866;2022-08-20T01:36:53;32.15;;;27.92;;
49193;SDS011;35029;50.804;12.866;2022-08-20T01:39:24;31.52;;;27.83;;
49193;SDS011;35029;50.804;12.866;2022-08-20T01:44:52;36.28;;;31.60;;
49193;SDS011;35029;50.804;12.866;2022-08-20T01:47:18;39.50;;;33.28;;
49193;SDS011;35029;50.804;12.866;2022-08-20T01:49:49;33.88;;;28.77;;
49193;SDS011;35029;50.804;12.866;2022-08-20T01:53:05;35.47;;;31.27;;
49193;SDS011;35029;50.804;12.866;2022-08-20T01:55:06;34.13;;;29.85;;
49193;SDS011;35029;50.804;12.866;2022-08-20T01:57:32;34.80;;;30.02;;
49193;SDS011;35029;50.804;12.866;2022-08-20T01:59:59;32.60;;;27.77;;
49193;SDS011;35029;50.804;12.866;2022-08-20T02:02:26;27.88;;;24.88;;
49193;SDS011;35029;50.804;12.866;2022-08-20T02:04:52;31.55;;;27.67;;
49193;SDS011;35029;50.804;12.866;2022-08-20T02:07:19;29.63;;;26.52;;
49193;SDS011;35029;50.804;12.866;2022-08-20T02:09:48;27.77;;;24.80;;
49193;SDS011;35029;50.804;12.866;2022-08-20T02:12:14;28.92;;;25.30;;
49193;SDS011;35029;50.804;12.866;2022-08-20T02:14:41;34.35;;;29.13;;
49193;SDS011;35029;50.804;12.866;2022-08-20T02:17:10;32.95;;;29.30;;
49193;SDS011;35029;50.804;12.866;2022-08-20T02:19:44;34.63;;;29.73;;
49193;SDS011;35029;50.804;12.866;2022-08-20T02:22:20;32.15;;;28.52;;
49193;SDS011;35029;50.804;12.866;2022-08-20T02:24:50;29.80;;;25.45;;
49193;SDS011;35029;50.804;12.866;2022-08-20T02:27:16;30.58;;;27.15;;
49193;SDS011;35029;50.804;12.866;2022-08-20T02:29:43;29.73;;;26.55;;
49193;SDS011;35029;50.804;12.866;2022-08-20T02:32:09;30.20;;;24.83;;
49193;SDS011;35029;50.804;12.866;2022-08-20T02:34:35;25.63;;;22.85;;
49193;SDS011;35029;50.804;12.866;2022-08-20T02:37:01;26.33;;;23.52;;
49193;SDS011;35029;50.804;12.866;2022-08-20T02:39:29;26.58;;;23.02;;
49193;SDS011;35029;50.804;12.866;2022-08-20T02:41:54;27.63;;;22.67;;
49193;SDS011;35029;50.804;12.866;2022-08-20T02:44:20;28.90;;;24.42;;
49193;SDS011;35029;50.804;12.866;2022-08-20T02:46:46;27.25;;;24.40;;
49193;SDS011;35029;50.804;12.866;2022-08-20T02:49:15;27.00;;;24.10;;
49193;SDS011;35029;50.804;12.866;2022-08-20T02:51:42;29.45;;;26.02;;
49193;SDS011;35029;50.804;12.866;2022-08-20T02:54:08;29.15;;;24.90;;
49193;SDS011;35029;50.804;12.866;2022-08-20T02:56:34;30.02;;;26.77;;
49193;SDS011;35029;50.804;12.866;2022-08-20T02:58:59;31.75;;;27.23;;
49193;SDS011;35029;50.804;12.866;2022-08-20T03:01:25;30.63;;;27.27;;
49193;SDS011;35029;50.804;12.866;2022-08-20T03:03:51;29.17;;;26.08;;
49193;SDS011;35029;50.804;12.866;2022-08-20T03:06:17;30.42;;;27.05;;
49193;SDS011;35029;50.804;12.866;2022-08-20T03:08:43;28.27;;;25.08;;
49193;SDS011;35029;50.804;12.866;2022-08-20T03:11:08;32.30;;;27.13;;
49193;SDS011;35029;50.804;12.866;2022-08-20T03:13:34;30.55;;;27.20;;
49193;SDS011;35029;50.804;12.866;2022-08-20T03:16:02;31.25;;;26.40;;
49193;SDS011;35029;50.804;12.866;2022-08-20T03:18:36;32.13;;;27.65;;
49193;SDS011;35029;50.804;12.866;2022-08-20T03:21:04;30.63;;;25.38;;
49193;SDS011;35029;50.804;12.866;2022-08-20T03:23:31;29.70;;;26.50;;
49193;SDS011;35029;50.804;12.866;2022-08-20T03:25:58;26.55;;;23.85;;
49193;SDS011;35029;50.804;12.866;2022-08-20T03:28:23;27.50;;;24.02;;
49193;SDS011;35029;50.804;12.866;2022-08-20T03:30:50;28.48;;;25.40;;
49193;SDS011;35029;50.804;12.866;2022-08-20T03:33:17;27.73;;;24.70;;
49193;SDS011;35029;50.804;12.866;2022-08-20T03:35:44;29.88;;;26.33;;
49193;SDS011;35029;50.804;12.866;2022-08-20T03:38:11;24.77;;;22.23;;
49193;SDS011;35029;50.804;12.866;2022-08-20T03:40:38;26.80;;;23.30;;
49193;SDS011;35029;50.804;12.866;2022-08-20T03:43:06;28.15;;;25.15;;
49193;SDS011;35029;50.804;12.866;2022-08-20T03:45:33;26.25;;;23.27;;
49193;SDS011;35029;50.804;12.866;2022-08-20T03:48:00;26.10;;;23.40;;
49193;SDS011;35029;50.804;12.866;2022-08-20T03:50:26;23.75;;;21.08;;
49193;SDS011;35029;50.804;12.866;2022-08-20T03:52:54;25.02;;;22.40;;
49193;SDS011;35029;50.804;12.866;2022-08-20T03:55:20;21.42;;;19.38;;
49193;SDS011;35029;50.804;12.866;2022-08-20T03:57:48;19.20;;;17.38;;
49193;SDS011;35029;50.804;12.866;2022-08-20T04:00:28;22.13;;;19.67;;
49193;SDS011;35029;50.804;12.866;2022-08-20T04:02:59;19.58;;;17.35;;
49193;SDS011;35029;50.804;12.866;2022-08-20T04:05:26;14.93;;;13.52;;
49193;SDS011;35029;50.804;12.866;2022-08-20T04:07:53;14.52;;;13.02;;
49193;SDS011;35029;50.804;12.866;2022-08-20T04:10:19;10.57;;;9.55;;
49193;SDS011;35029;50.804;12.866;2022-08-20T04:12:45;10.60;;;8.77;;
49193;SDS011;35029;50.804;12.866;2022-08-20T04:15:11;9.57;;;8.68;;
49193;SDS011;35029;50.804;12.866;2022-08-20T04:17:40;8.02;;;7.32;;
49193;SDS011;35029;50.804;12.866;2022-08-20T04:20:07;7.43;;;6.72;;
49193;SDS011;35029;50.804;12.866;2022-08-20T04:25:04;8.27;;;5.85;;
49193;SDS011;35029;50.804;12.866;2022-08-20T04:27:34;7.43;;;6.03;;
49193;SDS011;35029;50.804;12.866;2022-08-20T04:30:01;6.80;;;6.05;;
49193;SDS011;35029;50.804;12.866;2022-08-20T04:32:28;6.25;;;5.65;;
49193;SDS011;35029;50.804;12.866;2022-08-20T04:34:54;5.90;;;5.38;;
49193;SDS011;35029;50.804;12.866;2022-08-20T04:37:20;7.43;;;5.70;;
49193;SDS011;35029;50.804;12.866;2022-08-20T04:39:46;7.47;;;6.80;;
49193;SDS011;35029;50.804;12.866;2022-08-20T04:42:34;7.25;;;6.28;;
49193;SDS011;35029;50.804;12.866;2022-08-20T04:45:01;7.07;;;6.38;;
49193;SDS011;35029;50.804;12.866;2022-08-20T04:47:27;7.97;;;6.68;;
49193;SDS011;35029;50.804;12.866;2022-08-20T04:49:52;7.72;;;7.03;;
49193;SDS011;35029;50.804;12.866;2022-08-20T04:52:20;8.50;;;7.35;;
49193;SDS011;35029;50.804;12.866;2022-08-20T04:54:46;8.18;;;7.35;;
49193;SDS011;35029;50.804;12.866;2022-08-20T04:57:11;11.05;;;9.88;;
49193;SDS011;35029;50.804;12.866;2022-08-20T04:59:37;10.68;;;9.63;;
49193;SDS011;35029;50.804;12.866;2022-08-20T05:02:04;8.93;;;8.05;;
49193;SDS011;35029;50.804;12.866;2022-08-20T05:04:30;9.75;;;8.85;;
49193;SDS011;35029;50.804;12.866;2022-08-20T05:06:55;10.27;;;9.30;;
49193;SDS011;35029;50.804;12.866;2022-08-20T05:09:21;9.82;;;8.93;;
49193;SDS011;35029;50.804;12.866;2022-08-20T05:11:46;10.85;;;9.75;;
49193;SDS011;35029;50.804;12.866;2022-08-20T05:14:12;9.25;;;8.45;;
49193;SDS011;35029;50.804;12.866;2022-08-20T05:16:39;11.55;;;9.35;;
49193;SDS011;35029;50.804;12.866;2022-08-20T05:19:05;7.95;;;7.15;;
49193;SDS011;35029;50.804;12.866;2022-08-20T05:21:32;8.20;;;7.45;;
49193;SDS011;35029;50.804;12.866;2022-08-20T05:23:58;8.60;;;7.75;;
49193;SDS011;35029;50.804;12.866;2022-08-20T05:26:24;9.00;;;7.10;;
49193;SDS011;35029;50.804;12.866;2022-08-20T05:28:50;8.25;;;7.38;;
49193;SDS011;35029;50.804;12.866;2022-08-20T05:31:16;7.28;;;6.57;;
49193;SDS011;35029;50.804;12.866;2022-08-20T05:33:42;7.00;;;6.10;;
49193;SDS011;35029;50.804;12.866;2022-08-20T05:36:07;6.85;;;6.25;;
49193;SDS011;35029;50.804;12.866;2022-08-20T05:38:33;6.32;;;5.75;;
49193;SDS011;35029;50.804;12.866;2022-08-20T05:41:00;6.60;;;5.25;;
49193;SDS011;35029;50.804;12.866;2022-08-20T05:43:26;7.95;;;5.75;;
49193;SDS011;35029;50.804;12.866;2022-08-20T05:45:52;6.60;;;5.88;;
49193;SDS011;35029;50.804;12.866;2022-08-20T05:48:20;6.63;;;5.93;;
49193;SDS011;35029;50.804;12.866;2022-08-20T05:50:49;7.38;;;5.45;;
49193;SDS011;35029;50.804;12.866;2022-08-20T05:53:18;5.28;;;4.80;;
49193;SDS011;35029;50.804;12.866;2022-08-20T05:55:44;5.90;;;5.35;;
49193;SDS011;35029;50.804;12.866;2022-08-20T05:58:24;5.55;;;4.85;;
49193;SDS011;35029;50.804;12.866;2022-08-20T06:00:52;5.78;;;5.28;;
49193;SDS011;35029;50.804;12.866;2022-08-20T06:03:18;6.32;;;5.72;;
49193;SDS011;35029;50.804;12.866;2022-08-20T06:06:10;7.10;;;6.47;;
49193;SDS011;35029;50.804;12.866;2022-08-20T06:08:37;6.32;;;5.72;;
49193;SDS011;35029;50.804;12.866;2022-08-20T06:11:02;8.93;;;6.93;;
49193;SDS011;35029;50.804;12.866;2022-08-20T06:13:28;8.07;;;7.28;;
49193;SDS011;35029;50.804;12.866;2022-08-20T06:15:55;10.13;;;8.45;;
49193;SDS011;35029;50.804;12.866;2022-08-20T06:18:21;9.75;;;8.20;;
49193;SDS011;35029;50.804;12.866;2022-08-20T06:20:47;11.43;;;10.32;;
49193;SDS011;35029;50.804;12.866;2022-08-20T06:23:12;12.27;;;11.00;;
49193;SDS011;35029;50.804;12.866;2022-08-20T06:25:38;12.13;;;10.68;;
49193;SDS011;35029;50.804;12.866;2022-08-20T06:28:04;12.15;;;10.95;;
49193;SDS011;35029;50.804;12.866;2022-08-20T06:30:30;11.82;;;10.63;;
49193;SDS011;35029;50.804;12.866;2022-08-20T06:32:56;13.45;;;11.52;;
49193;SDS011;35029;50.804;12.866;2022-08-20T06:35:22;11.70;;;10.60;;
49193;SDS011;35029;50.804;12.866;2022-08-20T06:37:47;11.35;;;10.25;;
49193;SDS011;35029;50.804;12.866;2022-08-20T06:40:22;11.60;;;10.48;;
49193;SDS011;35029;50.804;12.866;2022-08-20T06:42:49;13.50;;;11.18;;
49193;SDS011;35029;50.804;12.866;2022-08-20T06:45:18;10.52;;;9.48;;
49193;SDS011;35029;50.804;12.866;2022-08-20T06:47:48;10.30;;;9.20;;
49193;SDS011;35029;50.804;12.866;2022-08-20T06:50:16;10.90;;;9.07;;
49193;SDS011;35029;50.804;12.866;2022-08-20T06:52:43;10.88;;;9.88;;
49193;SDS011;35029;50.804;12.866;2022-08-20T06:55:11;9.52;;;8.63;;
49193;SDS011;35029;50.804;12.866;2022-08-20T06:57:38;13.35;;;8.25;;
49193;SDS011;35029;50.804;12.866;2022-08-20T07:00:05;9.48;;;8.48;;
49193;SDS011;35029;50.804;12.866;2022-08-20T07:02:34;9.83;;;8.90;;
49193;SDS011;35029;50.804;12.866;2022-08-20T07:05:02;9.30;;;8.10;;
49193;SDS011;35029;50.804;12.866;2022-08-20T07:07:29;9.25;;;8.35;;
49193;SDS011;35029;50.804;12.866;2022-08-20T07:10:02;9.27;;;8.43;;
49193;SDS011;35029;50.804;12.866;2022-08-20T07:12:32;9.82;;;8.57;;
49193;SDS011;35029;50.804;12.866;2022-08-20T07:15:03;8.02;;;7.20;;
49193;SDS011;35029;50.804;12.866;2022-08-20T07:17:31;9.27;;;8.23;;
49193;SDS011;35029;50.804;12.866;2022-08-20T07:19:57;10.77;;;8.82;;
49193;SDS011;35029;50.804;12.866;2022-08-20T07:22:22;8.93;;;8.13;;
49193;SDS011;35029;50.804;12.866;2022-08-20T07:24:49;10.43;;;8.25;;
49193;SDS011;35029;50.804;12.866;2022-08-20T07:27:19;8.75;;;7.85;;
49193;SDS011;35029;50.804;12.866;2022-08-20T07:29:46;9.48;;;8.57;;
49193;SDS011;35029;50.804;12.866;2022-08-20T07:32:31;8.95;;;8.05;;
49193;SDS011;35029;50.804;12.866;2022-08-20T07:35:05;11.20;;;8.63;;
49193;SDS011;35029;50.804;12.866;2022-08-20T07:37:37;9.00;;;8.20;;
49193;SDS011;35029;50.804;12.866;2022-08-20T07:40:05;8.68;;;7.82;;
49193;SDS011;35029;50.804;12.866;2022-08-20T07:42:35;8.73;;;7.90;;
49193;SDS011;35029;50.804;12.866;2022-08-20T07:45:04;8.98;;;8.15;;
49193;SDS011;35029;50.804;12.866;2022-08-20T07:47:37;8.55;;;7.80;;
49193;SDS011;35029;50.804;12.866;2022-08-20T07:50:04;9.20;;;8.30;;
49193;SDS011;35029;50.804;12.866;2022-08-20T07:52:30;9.77;;;8.80;;
49193;SDS011;35029;50.804;12.866;2022-08-20T07:55:00;8.13;;;7.43;;
49193;SDS011;35029;50.804;12.866;2022-08-20T07:57:30;9.07;;;8.27;;
49193;SDS011;35029;50.804;12.866;2022-08-20T07:59:56;9.35;;;8.40;;
49193;SDS011;35029;50.804;12.866;2022-08-20T08:02:25;8.85;;;8.07;;
49193;SDS011;35029;50.804;12.866;2022-08-20T08:04:52;9.27;;;8.48;;
49193;SDS011;35029;50.804;12.866;2022-08-20T08:07:18;8.73;;;7.93;;
49193;SDS011;35029;50.804;12.866;2022-08-20T08:09:45;9.82;;;8.82;;
49193;SDS011;35029;50.804;12.866;2022-08-20T08:12:11;9.57;;;8.57;;
49193;SDS011;35029;50.804;12.866;2022-08-20T08:14:39;8.88;;;8.07;;
49193;SDS011;35029;50.804;12.866;2022-08-20T08:17:09;9.90;;;8.90;;
49193;SDS011;35029;50.804;12.866;2022-08-20T08:19:36;9.02;;;8.18;;
49193;SDS011;35029;50.804;12.866;2022-08-20T08:22:07;9.18;;;7.97;;
49193;SDS011;35029;50.804;12.866;2022-08-20T08:24:38;9.45;;;8.55;;
49193;SDS011;35029;50.804;12.866;2022-08-20T08:27:05;9.20;;;8.20;;
49193;SDS011;35029;50.804;12.866;2022-08-20T08:29:33;8.38;;;7.57;;
49193;SDS011;35029;50.804;12.866;2022-08-20T08:32:00;8.73;;;7.93;;
49193;SDS011;35029;50.804;12.866;2022-08-20T08:34:27;8.25;;;7.45;;
49193;SDS011;35029;50.804;12.866;2022-08-20T08:36:54;8.02;;;7.22;;
49193;SDS011;35029;50.804;12.866;2022-08-20T08:39:19;8.85;;;8.05;;
49193;SDS011;35029;50.804;12.866;2022-08-20T08:41:47;9.00;;;7.85;;
49193;SDS011;35029;50.804;12.866;2022-08-20T08:44:16;9.00;;;8.10;;
49193;SDS011;35029;50.804;12.866;2022-08-20T08:46:50;10.20;;;6.97;;
49193;SDS011;35029;50.804;12.866;2022-08-20T08:49:22;9.68;;;8.68;;
49193;SDS011;35029;50.804;12.866;2022-08-20T08:51:54;7.95;;;7.15;;
49193;SDS011;35029;50.804;12.866;2022-08-20T08:54:27;7.97;;;7.30;;
49193;SDS011;35029;50.804;12.866;2022-08-20T08:56:55;7.63;;;6.88;;
49193;SDS011;35029;50.804;12.866;2022-08-20T08:59:21;7.30;;;6.60;;
49193;SDS011;35029;50.804;12.866;2022-08-20T09:01:49;7.63;;;6.72;;
49193;SDS011;35029;50.804;12.866;2022-08-20T09:04:17;7.53;;;6.88;;
49193;SDS011;35029;50.804;12.866;2022-08-20T09:06:46;7.63;;;6.90;;
49193;SDS011;35029;50.804;12.866;2022-08-20T09:09:20;6.70;;;6.10;;
49193;SDS011;35029;50.804;12.866;2022-08-20T09:11:51;7.18;;;6.45;;
49193;SDS011;35029;50.804;12.866;2022-08-20T09:14:19;7.18;;;6.20;;
49193;SDS011;35029;50.804;12.866;2022-08-20T09:16:49;7.20;;;6.50;;
49193;SDS011;35029;50.804;12.866;2022-08-20T09:19:15;7.65;;;6.32;;
49193;SDS011;35029;50.804;12.866;2022-08-20T09:21:41;5.45;;;4.95;;
49193;SDS011;35029;50.804;12.866;2022-08-20T09:24:07;7.55;;;6.60;;
49193;SDS011;35029;50.804;12.866;2022-08-20T09:26:32;7.32;;;6.60;;
49193;SDS011;35029;50.804;12.866;2022-08-20T09:28:58;7.53;;;6.68;;
49193;SDS011;35029;50.804;12.866;2022-08-20T09:31:23;7.03;;;6.32;;
49193;SDS011;35029;50.804;12.866;2022-08-20T09:33:49;6.93;;;6.25;;
49193;SDS011;35029;50.804;12.866;2022-08-20T09:36:16;7.72;;;6.50;;
49193;SDS011;35029;50.804;12.866;2022-08-20T09:38:41;8.27;;;6.90;;
49193;SDS011;35029;50.804;12.866;2022-08-20T09:41:07;6.85;;;6.15;;
49193;SDS011;35029;50.804;12.866;2022-08-20T09:43:33;8.13;;;6.35;;
49193;SDS011;35029;50.804;12.866;2022-08-20T09:45:58;7.10;;;6.40;;
49193;SDS011;35029;50.804;12.866;2022-08-20T09:48:24;6.72;;;6.13;;
49193;SDS011;35029;50.804;12.866;2022-08-20T09:50:49;12.75;;;6.40;;
49193;SDS011;35029;50.804;12.866;2022-08-20T09:53:15;6.55;;;5.88;;
49193;SDS011;35029;50.804;12.866;2022-08-20T09:55:44;7.15;;;6.55;;
49193;SDS011;35029;50.804;12.866;2022-08-20T10:00:38;6.00;;;5.50;;
49193;SDS011;35029;50.804;12.866;2022-08-20T10:03:04;5.57;;;5.07;;
49193;SDS011;35029;50.804;12.866;2022-08-20T10:05:30;6.80;;;6.15;;
49193;SDS011;35029;50.804;12.866;2022-08-20T10:07:55;5.90;;;5.40;;
49193;SDS011;35029;50.804;12.866;2022-08-20T10:10:23;6.00;;;5.50;;
49193;SDS011;35029;50.804;12.866;2022-08-20T10:12:49;6.80;;;5.90;;
49193;SDS011;35029;50.804;12.866;2022-08-20T10:15:14;6.47;;;5.80;;
49193;SDS011;35029;50.804;12.866;2022-08-20T10:17:41;6.70;;;6.10;;
49193;SDS011;35029;50.804;12.866;2022-08-20T10:20:08;8.07;;;6.05;;
49193;SDS011;35029;50.804;12.866;2022-08-20T10:22:35;7.18;;;6.45;;
49193;SDS011;35029;50.804;12.866;2022-08-20T10:25:01;7.57;;;6.70;;
49193;SDS011;35029;50.804;12.866;2022-08-20T10:27:29;8.10;;;6.78;;
49193;SDS011;35029;50.804;12.866;2022-08-20T10:29:55;6.47;;;5.90;;
49193;SDS011;35029;50.804;12.866;2022-08-20T10:32:20;6.50;;;5.90;;
49193;SDS011;35029;50.804;12.866;2022-08-20T10:34:46;7.03;;;6.07;;
49193;SDS011;35029;50.804;12.866;2022-08-20T10:37:16;6.40;;;5.68;;
49193;SDS011;35029;50.804;12.866;2022-08-20T10:39:43;8.88;;;6.95;;
49193;SDS011;35029;50.804;12.866;2022-08-20T10:42:10;7.00;;;6.40;;
49193;SDS011;35029;50.804;12.866;2022-08-20T10:44:36;6.32;;;5.72;;
49193;SDS011;35029;50.804;12.866;2022-08-20T10:47:12;6.53;;;5.90;;
49193;SDS011;35029;50.804;12.866;2022-08-20T10:49:49;7.28;;;5.78;;
49193;SDS011;35029;50.804;12.866;2022-08-20T10:52:17;7.15;;;6.55;;
49193;SDS011;35029;50.804;12.866;2022-08-20T10:54:44;7.07;;;6.35;;
49193;SDS011;35029;50.804;12.866;2022-08-20T10:57:15;6.68;;;6.05;;
49193;SDS011;35029;50.804;12.866;2022-08-20T10:59:43;9.63;;;6.32;;
49193;SDS011;35029;50.804;12.866;2022-08-20T11:02:10;7.43;;;5.97;;
49193;SDS011;35029;50.804;12.866;2022-08-20T11:04:36;5.18;;;4.68;;
49193;SDS011;35029;50.804;12.866;2022-08-20T11:07:15;5.60;;;5.10;;
49193;SDS011;35029;50.804;12.866;2022-08-20T11:09:46;8.05;;;5.95;;
49193;SDS011;35029;50.804;12.866;2022-08-20T11:12:13;6.82;;;5.80;;
49193;SDS011;35029;50.804;12.866;2022-08-20T11:14:40;6.28;;;5.68;;
49193;SDS011;35029;50.804;12.866;2022-08-20T11:17:06;7.32;;;5.85;;
49193;SDS011;35029;50.804;12.866;2022-08-20T11:19:33;6.22;;;5.63;;
49193;SDS011;35029;50.804;12.866;2022-08-20T11:22:03;6.95;;;5.85;;
49193;SDS011;35029;50.804;12.866;2022-08-20T11:24:29;7.22;;;6.18;;
49193;SDS011;35029;50.804;12.866;2022-08-20T11:26:54;10.27;;;5.88;;
49193;SDS011;35029;50.804;12.866;2022-08-20T11:29:20;6.78;;;5.82;;
49193;SDS011;35029;50.804;12.866;2022-08-20T11:31:46;6.45;;;5.63;;
49193;SDS011;35029;50.804;12.866;2022-08-20T11:34:12;6.15;;;5.65;;
49193;SDS011;35029;50.804;12.866;2022-08-20T11:36:38;6.03;;;5.45;;
49193;SDS011;35029;50.804;12.866;2022-08-20T11:39:04;6.32;;;5.82;;
49193;SDS011;35029;50.804;12.866;2022-08-20T11:41:30;6.35;;;5.80;;
49193;SDS011;35029;50.804;12.866;2022-08-20T11:43:55;7.55;;;5.15;;
49193;SDS011;35029;50.804;12.866;2022-08-20T11:46:21;5.78;;;5.25;;
49193;SDS011;35029;50.804;12.866;2022-08-20T11:48:46;6.72;;;6.07;;
49193;SDS011;35029;50.804;12.866;2022-08-20T11:51:12;5.50;;;5.10;;
49193;SDS011;35029;50.804;12.866;2022-08-20T11:53:37;6.00;;;4.85;;
49193;SDS011;35029;50.804;12.866;2022-08-20T11:56:03;5.78;;;5.15;;
49193;SDS011;35029;50.804;12.866;2022-08-20T11:58:28;5.55;;;5.05;;
49193;SDS011;35029;50.804;12.866;2022-08-20T12:00:54;5.38;;;4.95;;
49193;SDS011;35029;50.804;12.866;2022-08-20T12:03:19;5.82;;;5.00;;
49193;SDS011;35029;50.804;12.866;2022-08-20T12:05:45;5.05;;;4.53;;
49193;SDS011;35029;50.804;12.866;2022-08-20T12:08:12;6.07;;;4.95;;
49193;SDS011;35029;50.804;12.866;2022-08-20T12:10:39;7.20;;;5.10;;
49193;SDS011;35029;50.804;12.866;2022-08-20T12:13:05;5.72;;;4.75;;
49193;SDS011;35029;50.804;12.866;2022-08-20T12:15:33;5.90;;;4.68;;
49193;SDS011;35029;50.804;12.866;2022-08-20T12:17:59;6.70;;;5.80;;
49193;SDS011;35029;50.804;12.866;2022-08-20T12:20:25;5.57;;;5.07;;
49193;SDS011;35029;50.804;12.866;2022-08-20T12:22:51;7.00;;;6.30;;
49193;SDS011;35029;50.804;12.866;2022-08-20T12:25:18;8.25;;;6.80;;
49193;SDS011;35029;50.804;12.866;2022-08-20T12:27:44;7.55;;;5.70;;
49193;SDS011;35029;50.804;12.866;2022-08-20T12:30:12;6.03;;;5.53;;
49193;SDS011;35029;50.804;12.866;2022-08-20T12:32:41;7.30;;;6.60;;
49193;SDS011;35029;50.804;12.866;2022-08-20T12:35:07;7.22;;;6.53;;
49193;SDS011;35029;50.804;12.866;2022-08-20T12:37:34;7.47;;;6.53;;
49193;SDS011;35029;50.804;12.866;2022-08-20T12:40:02;6.55;;;5.88;;
49193;SDS011;35029;50.804;12.866;2022-08-20T12:42:30;6.40;;;5.80;;
49193;SDS011;35029;50.804;12.866;2022-08-20T12:44:56;7.55;;;5.05;;
49193;SDS011;35029;50.804;12.866;2022-08-20T12:47:23;6.43;;;5.30;;
49193;SDS011;35029;50.804;12.866;2022-08-20T12:49:58;5.65;;;4.95;;
49193;SDS011;35029;50.804;12.866;2022-08-20T12:52:25;8.82;;;7.20;;
49193;SDS011;35029;50.804;12.866;2022-08-20T12:54:53;7.55;;;6.85;;
49193;SDS011;35029;50.804;12.866;2022-08-20T12:57:27;7.20;;;6.38;;
49193;SDS011;35029;50.804;12.866;2022-08-20T12:59:55;7.13;;;6.43;;
49193;SDS011;35029;50.804;12.866;2022-08-20T13:02:21;8.05;;;7.25;;
49193;SDS011;35029;50.804;12.866;2022-08-20T13:07:22;7.15;;;6.47;;
49193;SDS011;35029;50.804;12.866;2022-08-20T13:09:47;6.38;;;5.78;;
49193;SDS011;35029;50.804;12.866;2022-08-20T13:12:13;7.75;;;6.00;;
49193;SDS011;35029;50.804;12.866;2022-08-20T13:14:39;6.47;;;5.25;;
49193;SDS011;35029;50.804;12.866;2022-08-20T13:17:05;6.22;;;5.63;;
49193;SDS011;35029;50.804;12.866;2022-08-20T13:19:32;6.30;;;5.75;;
49193;SDS011;35029;50.804;12.866;2022-08-20T13:21:59;6.25;;;5.65;;
49193;SDS011;35029;50.804;12.866;2022-08-20T13:24:25;5.78;;;5.28;;
49193;SDS011;35029;50.804;12.866;2022-08-20T13:26:50;6.40;;;5.75;;
49193;SDS011;35029;50.804;12.866;2022-08-20T13:29:16;5.65;;;5.15;;
49193;SDS011;35029;50.804;12.866;2022-08-20T13:31:43;6.07;;;5.57;;
49193;SDS011;35029;50.804;12.866;2022-08-20T13:34:08;5.90;;;5.40;;
49193;SDS011;35029;50.804;12.866;2022-08-20T13:36:34;5.93;;;5.43;;
49193;SDS011;35029;50.804;12.866;2022-08-20T13:39:01;6.32;;;5.68;;
49193;SDS011;35029;50.804;12.866;2022-08-20T13:41:29;7.20;;;6.10;;
49193;SDS011;35029;50.804;12.866;2022-08-20T13:43:54;6.63;;;6.03;;
49193;SDS011;35029;50.804;12.866;2022-08-20T13:46:20;6.53;;;5.03;;
49193;SDS011;35029;50.804;12.866;2022-08-20T13:48:45;6.10;;;5.47;;
49193;SDS011;35029;50.804;12.866;2022-08-20T13:51:11;5.60;;;4.97;;
49193;SDS011;35029;50.804;12.866;2022-08-20T13:53:36;6.32;;;5.32;;
49193;SDS011;35029;50.804;12.866;2022-08-20T13:56:02;5.25;;;4.70;;
49193;SDS011;35029;50.804;12.866;2022-08-20T13:58:28;6.75;;;4.70;;
49193;SDS011;35029;50.804;12.866;2022-08-20T14:00:53;6.03;;;5.43;;
49193;SDS011;35029;50.804;12.866;2022-08-20T14:03:19;5.85;;;5.35;;
49193;SDS011;35029;50.804;12.866;2022-08-20T14:05:44;5.78;;;5.18;;
49193;SDS011;35029;50.804;12.866;2022-08-20T14:08:11;5.95;;;5.50;;
49193;SDS011;35029;50.804;12.866;2022-08-20T14:10:40;6.57;;;5.97;;
49193;SDS011;35029;50.804;12.866;2022-08-20T14:13:05;5.57;;;5.05;;
49193;SDS011;35029;50.804;12.866;2022-08-20T14:15:32;6.72;;;5.32;;
49193;SDS011;35029;50.804;12.866;2022-08-20T14:17:58;7.47;;;6.78;;
49193;SDS011;35029;50.804;12.866;2022-08-20T14:20:25;6.07;;;5.50;;
49193;SDS011;35029;50.804;12.866;2022-08-20T14:22:53;5.82;;;5.20;;
49193;SDS011;35029;50.804;12.866;2022-08-20T14:25:20;5.60;;;5.10;;
49193;SDS011;35029;50.804;12.866;2022-08-20T14:27:46;7.95;;;5.35;;
49193;SDS011;35029;50.804;12.866;2022-08-20T14:30:14;6.43;;;5.82;;
49193;SDS011;35029;50.804;12.866;2022-08-20T14:32:47;5.13;;;4.60;;
49193;SDS011;35029;50.804;12.866;2022-08-20T14:35:13;7.35;;;5.70;;
49193;SDS011;35029;50.804;12.866;2022-08-20T14:37:40;5.28;;;4.85;;
49193;SDS011;35029;50.804;12.866;2022-08-20T14:40:09;6.45;;;5.80;;